sensor_id;sensor_type;location;lat;lon;timestamp;P1;durP1;ratioP1;P2;durP2;ratioP2
14171;SDS011;7165;52.388;4.928;2024-03-08T00:02:03;34.13;;;27.17;;
14171;SDS011;7165;52.388;4.928;2024-03-08T00:04:30;33.53;;;26.87;;
14171;SDS011;7165;52.388;4.928;2024-03-08T00:06:57;32.63;;;26.13;;
14171;SDS011;7165;52.388;4.928;2024-03-08T00:09:24;33.60;;;27.70;;
14171;SDS011;7165;52.388;4.928;2024-03-08T00:11:53;33.70;;;27.00;;
14171;SDS011;7165;52.388;4.928;2024-03-08T00:14:20;31.97;;;27.13;;
14171;SDS011;7165;52.388;4.928;2024-03-08T00:16:47;37.37;;;26.93;;
14171;SDS011;7165;52.388;4.928;2024-03-08T00:19:14;30.47;;;25.50;;
14171;SDS011;7165;52.388;4.928;2024-03-08T00:21:41;32.83;;;26.03;;
14171;SDS011;7165;52.388;4.928;2024-03-08T00:24:08;37.27;;;26.80;;
14171;SDS011;7165;52.388;4.928;2024-03-08T00:26:35;27.63;;;24.40;;
14171;SDS011;7165;52.388;4.928;2024-03-08T00:29:03;30.23;;;25.23;;
14171;SDS011;7165;52.388;4.928;2024-03-08T00:31:32;35.57;;;26.40;;
14171;SDS011;7165;52.388;4.928;2024-03-08T00:34:00;29.53;;;25.53;;
14171;SDS011;7165;52.388;4.928;2024-03-08T00:36:27;29.10;;;24.80;;
14171;SDS011;7165;52.388;4.928;2024-03-08T00:38:55;29.57;;;24.80;;
14171;SDS011;7165;52.388;4.928;2024-03-08T00:41:22;29.27;;;24.90;;
14171;SDS011;7165;52.388;4.928;2024-03-08T00:43:51;31.57;;;25.40;;
14171;SDS011;7165;52.388;4.928;2024-03-08T00:46:19;26.40;;;23.53;;
14171;SDS011;7165;52.388;4.928;2024-03-08T00:48:47;29.13;;;23.87;;
14171;SDS011;7165;52.388;4.928;2024-03-08T00:51:13;28.63;;;25.40;;
14171;SDS011;7165;52.388;4.928;2024-03-08T00:53:41;27.20;;;23.73;;
14171;SDS011;7165;52.388;4.928;2024-03-08T00:56:08;28.23;;;24.43;;
14171;SDS011;7165;52.388;4.928;2024-03-08T00:58:35;29.80;;;22.93;;
14171;SDS011;7165;52.388;4.928;2024-03-08T01:01:03;31.70;;;24.73;;
14171;SDS011;7165;52.388;4.928;2024-03-08T01:03:31;35.47;;;24.30;;
14171;SDS011;7165;52.388;4.928;2024-03-08T01:05:59;26.80;;;22.53;;
14171;SDS011;7165;52.388;4.928;2024-03-08T01:13:20;31.73;;;25.60;;
14171;SDS011;7165;52.388;4.928;2024-03-08T01:15:47;26.77;;;22.77;;
14171;SDS011;7165;52.388;4.928;2024-03-08T01:18:14;27.70;;;23.93;;
14171;SDS011;7165;52.388;4.928;2024-03-08T01:20:43;26.20;;;23.50;;
14171;SDS011;7165;52.388;4.928;2024-03-08T01:23:10;31.37;;;25.57;;
14171;SDS011;7165;52.388;4.928;2024-03-08T01:25:37;28.20;;;24.17;;
14171;SDS011;7165;52.388;4.928;2024-03-08T01:28:04;27.73;;;23.67;;
14171;SDS011;7165;52.388;4.928;2024-03-08T01:30:31;34.90;;;25.63;;
14171;SDS011;7165;52.388;4.928;2024-03-08T01:33:00;29.03;;;24.53;;
14171;SDS011;7165;52.388;4.928;2024-03-08T01:35:27;31.57;;;25.97;;
14171;SDS011;7165;52.388;4.928;2024-03-08T01:37:56;29.13;;;24.47;;
14171;SDS011;7165;52.388;4.928;2024-03-08T01:40:23;29.73;;;24.70;;
14171;SDS011;7165;52.388;4.928;2024-03-08T01:42:49;28.70;;;24.93;;
14171;SDS011;7165;52.388;4.928;2024-03-08T01:45:16;27.67;;;23.87;;
14171;SDS011;7165;52.388;4.928;2024-03-08T01:47:44;31.87;;;25.77;;
14171;SDS011;7165;52.388;4.928;2024-03-08T01:50:13;32.77;;;25.83;;
14171;SDS011;7165;52.388;4.928;2024-03-08T01:52:41;30.00;;;26.57;;
14171;SDS011;7165;52.388;4.928;2024-03-08T01:55:10;32.50;;;26.30;;
14171;SDS011;7165;52.388;4.928;2024-03-08T01:57:39;32.27;;;27.13;;
14171;SDS011;7165;52.388;4.928;2024-03-08T02:00:07;31.00;;;26.50;;
14171;SDS011;7165;52.388;4.928;2024-03-08T02:02:36;32.37;;;28.07;;
14171;SDS011;7165;52.388;4.928;2024-03-08T02:05:04;32.00;;;26.33;;
14171;SDS011;7165;52.388;4.928;2024-03-08T02:07:32;33.47;;;27.53;;
14171;SDS011;7165;52.388;4.928;2024-03-08T02:09:58;31.47;;;27.40;;
14171;SDS011;7165;52.388;4.928;2024-03-08T02:12:27;29.60;;;26.50;;
14171;SDS011;7165;52.388;4.928;2024-03-08T02:14:54;29.63;;;26.43;;
14171;SDS011;7165;52.388;4.928;2024-03-08T02:17:21;28.00;;;24.97;;
14171;SDS011;7165;52.388;4.928;2024-03-08T02:19:48;33.43;;;26.87;;
14171;SDS011;7165;52.388;4.928;2024-03-08T02:22:16;29.90;;;26.50;;
14171;SDS011;7165;52.388;4.928;2024-03-08T02:24:44;31.13;;;26.30;;
14171;SDS011;7165;52.388;4.928;2024-03-08T02:27:11;33.37;;;26.43;;
14171;SDS011;7165;52.388;4.928;2024-03-08T02:29:38;30.90;;;27.33;;
14171;SDS011;7165;52.388;4.928;2024-03-08T02:32:06;28.77;;;25.70;;
14171;SDS011;7165;52.388;4.928;2024-03-08T02:34:33;31.37;;;26.60;;
14171;SDS011;7165;52.388;4.928;2024-03-08T02:37:01;35.53;;;28.43;;
14171;SDS011;7165;52.388;4.928;2024-03-08T02:39:30;33.47;;;27.67;;
14171;SDS011;7165;52.388;4.928;2024-03-08T02:41:57;33.17;;;28.17;;
14171;SDS011;7165;52.388;4.928;2024-03-08T02:44:24;34.97;;;28.23;;
14171;SDS011;7165;52.388;4.928;2024-03-08T02:46:51;30.10;;;26.90;;
14171;SDS011;7165;52.388;4.928;2024-03-08T02:49:20;33.67;;;28.17;;
14171;SDS011;7165;52.388;4.928;2024-03-08T02:51:47;32.00;;;26.80;;
14171;SDS011;7165;52.388;4.928;2024-03-08T02:54:13;30.47;;;26.67;;
14171;SDS011;7165;52.388;4.928;2024-03-08T02:56:43;34.03;;;28.20;;
14171;SDS011;7165;52.388;4.928;2024-03-08T02:59:11;29.23;;;26.13;;
14171;SDS011;7165;52.388;4.928;2024-03-08T03:01:38;34.30;;;28.53;;
14171;SDS011;7165;52.388;4.928;2024-03-08T03:04:06;31.37;;;26.37;;
14171;SDS011;7165;52.388;4.928;2024-03-08T03:06:33;29.83;;;26.50;;
14171;SDS011;7165;52.388;4.928;2024-03-08T03:09:00;30.70;;;26.80;;
14171;SDS011;7165;52.388;4.928;2024-03-08T03:11:27;30.87;;;27.63;;
14171;SDS011;7165;52.388;4.928;2024-03-08T03:13:55;33.77;;;27.03;;
14171;SDS011;7165;52.388;4.928;2024-03-08T03:16:22;31.97;;;27.07;;
14171;SDS011;7165;52.388;4.928;2024-03-08T03:18:49;34.17;;;29.10;;
14171;SDS011;7165;52.388;4.928;2024-03-08T03:21:16;33.43;;;26.03;;
14171;SDS011;7165;52.388;4.928;2024-03-08T03:23:43;33.10;;;27.80;;
14171;SDS011;7165;52.388;4.928;2024-03-08T03:26:10;35.47;;;29.43;;
14171;SDS011;7165;52.388;4.928;2024-03-08T03:28:37;33.17;;;28.93;;
14171;SDS011;7165;52.388;4.928;2024-03-08T03:31:06;32.40;;;27.30;;
14171;SDS011;7165;52.388;4.928;2024-03-08T03:33:35;35.03;;;26.27;;
14171;SDS011;7165;52.388;4.928;2024-03-08T03:36:02;31.30;;;27.30;;
14171;SDS011;7165;52.388;4.928;2024-03-08T03:38:30;31.93;;;28.63;;
14171;SDS011;7165;52.388;4.928;2024-03-08T03:40:57;34.80;;;29.37;;
14171;SDS011;7165;52.388;4.928;2024-03-08T03:43:29;30.80;;;27.60;;
14171;SDS011;7165;52.388;4.928;2024-03-08T03:45:56;33.13;;;28.30;;
14171;SDS011;7165;52.388;4.928;2024-03-08T03:48:24;33.03;;;28.83;;
14171;SDS011;7165;52.388;4.928;2024-03-08T03:50:51;31.77;;;28.30;;
14171;SDS011;7165;52.388;4.928;2024-03-08T03:53:18;32.27;;;28.73;;
14171;SDS011;7165;52.388;4.928;2024-03-08T03:55:45;34.93;;;30.07;;
14171;SDS011;7165;52.388;4.928;2024-03-08T03:58:12;33.67;;;28.80;;
14171;SDS011;7165;52.388;4.928;2024-03-08T04:00:39;34.53;;;30.10;;
14171;SDS011;7165;52.388;4.928;2024-03-08T04:03:06;34.53;;;29.90;;
14171;SDS011;7165;52.388;4.928;2024-03-08T04:05:34;35.57;;;29.83;;
14171;SDS011;7165;52.388;4.928;2024-03-08T04:08:01;34.30;;;28.10;;
14171;SDS011;7165;52.388;4.928;2024-03-08T04:10:29;34.77;;;28.73;;
14171;SDS011;7165;52.388;4.928;2024-03-08T04:12:55;31.73;;;27.90;;
14171;SDS011;7165;52.388;4.928;2024-03-08T04:15:23;32.03;;;27.80;;
14171;SDS011;7165;52.388;4.928;2024-03-08T04:17:50;33.23;;;27.83;;
14171;SDS011;7165;52.388;4.928;2024-03-08T04:20:17;32.00;;;28.67;;
14171;SDS011;7165;52.388;4.928;2024-03-08T04:22:46;34.17;;;29.07;;
14171;SDS011;7165;52.388;4.928;2024-03-08T04:25:14;36.03;;;30.53;;
14171;SDS011;7165;52.388;4.928;2024-03-08T04:27:41;33.77;;;28.07;;
14171;SDS011;7165;52.388;4.928;2024-03-08T04:30:09;34.63;;;29.53;;
14171;SDS011;7165;52.388;4.928;2024-03-08T04:32:37;31.57;;;28.17;;
14171;SDS011;7165;52.388;4.928;2024-03-08T04:35:04;36.03;;;30.60;;
14171;SDS011;7165;52.388;4.928;2024-03-08T04:37:31;34.93;;;28.40;;
14171;SDS011;7165;52.388;4.928;2024-03-08T04:40:00;41.40;;;32.73;;
14171;SDS011;7165;52.388;4.928;2024-03-08T04:42:27;37.10;;;28.23;;
14171;SDS011;7165;52.388;4.928;2024-03-08T04:44:57;35.93;;;30.50;;
14171;SDS011;7165;52.388;4.928;2024-03-08T04:47:24;32.47;;;27.57;;
14171;SDS011;7165;52.388;4.928;2024-03-08T04:49:51;38.07;;;30.57;;
14171;SDS011;7165;52.388;4.928;2024-03-08T04:52:19;31.70;;;28.23;;
14171;SDS011;7165;52.388;4.928;2024-03-08T04:54:47;34.33;;;29.13;;
14171;SDS011;7165;52.388;4.928;2024-03-08T04:57:15;32.83;;;29.07;;
14171;SDS011;7165;52.388;4.928;2024-03-08T04:59:43;32.07;;;28.40;;
14171;SDS011;7165;52.388;4.928;2024-03-08T05:02:10;35.43;;;29.20;;
14171;SDS011;7165;52.388;4.928;2024-03-08T05:04:37;39.43;;;33.90;;
14171;SDS011;7165;52.388;4.928;2024-03-08T05:07:04;34.40;;;30.23;;
14171;SDS011;7165;52.388;4.928;2024-03-08T05:09:31;40.17;;;33.13;;
14171;SDS011;7165;52.388;4.928;2024-03-08T05:11:58;37.00;;;31.33;;
14171;SDS011;7165;52.388;4.928;2024-03-08T05:14:26;36.43;;;31.27;;
14171;SDS011;7165;52.388;4.928;2024-03-08T05:16:54;37.87;;;31.20;;
14171;SDS011;7165;52.388;4.928;2024-03-08T05:19:21;37.93;;;30.80;;
14171;SDS011;7165;52.388;4.928;2024-03-08T05:21:48;37.03;;;31.37;;
14171;SDS011;7165;52.388;4.928;2024-03-08T05:24:16;36.60;;;30.83;;
14171;SDS011;7165;52.388;4.928;2024-03-08T05:26:43;33.23;;;28.37;;
14171;SDS011;7165;52.388;4.928;2024-03-08T05:29:11;33.33;;;29.27;;
14171;SDS011;7165;52.388;4.928;2024-03-08T05:31:42;42.80;;;33.87;;
14171;SDS011;7165;52.388;4.928;2024-03-08T05:34:12;39.13;;;31.70;;
14171;SDS011;7165;52.388;4.928;2024-03-08T05:36:39;38.07;;;31.33;;
14171;SDS011;7165;52.388;4.928;2024-03-08T05:39:08;35.83;;;29.53;;
14171;SDS011;7165;52.388;4.928;2024-03-08T05:41:37;37.20;;;30.80;;
14171;SDS011;7165;52.388;4.928;2024-03-08T05:44:04;34.60;;;30.87;;
14171;SDS011;7165;52.388;4.928;2024-03-08T05:46:31;38.00;;;32.27;;
14171;SDS011;7165;52.388;4.928;2024-03-08T05:48:59;36.50;;;30.70;;
14171;SDS011;7165;52.388;4.928;2024-03-08T05:51:30;35.00;;;31.13;;
14171;SDS011;7165;52.388;4.928;2024-03-08T05:53:57;42.00;;;34.60;;
14171;SDS011;7165;52.388;4.928;2024-03-08T05:56:24;41.80;;;33.50;;
14171;SDS011;7165;52.388;4.928;2024-03-08T05:58:51;30.70;;;27.20;;
14171;SDS011;7165;52.388;4.928;2024-03-08T06:01:19;39.20;;;30.20;;
14171;SDS011;7165;52.388;4.928;2024-03-08T06:03:46;33.40;;;29.47;;
14171;SDS011;7165;52.388;4.928;2024-03-08T06:06:15;37.87;;;31.47;;
14171;SDS011;7165;52.388;4.928;2024-03-08T06:08:43;37.83;;;31.53;;
14171;SDS011;7165;52.388;4.928;2024-03-08T06:11:10;37.93;;;32.13;;
14171;SDS011;7165;52.388;4.928;2024-03-08T06:13:37;41.87;;;34.77;;
14171;SDS011;7165;52.388;4.928;2024-03-08T06:16:04;38.53;;;30.27;;
14171;SDS011;7165;52.388;4.928;2024-03-08T06:18:33;35.83;;;31.17;;
14171;SDS011;7165;52.388;4.928;2024-03-08T06:21:01;40.57;;;34.17;;
14171;SDS011;7165;52.388;4.928;2024-03-08T06:23:31;35.80;;;30.47;;
14171;SDS011;7165;52.388;4.928;2024-03-08T06:25:58;33.07;;;28.63;;
14171;SDS011;7165;52.388;4.928;2024-03-08T06:28:26;35.30;;;30.73;;
14171;SDS011;7165;52.388;4.928;2024-03-08T06:30:52;41.77;;;33.13;;
14171;SDS011;7165;52.388;4.928;2024-03-08T06:33:19;38.03;;;31.53;;
14171;SDS011;7165;52.388;4.928;2024-03-08T06:35:46;39.40;;;32.50;;
14171;SDS011;7165;52.388;4.928;2024-03-08T06:38:13;40.00;;;31.57;;
14171;SDS011;7165;52.388;4.928;2024-03-08T06:40:43;34.23;;;29.10;;
14171;SDS011;7165;52.388;4.928;2024-03-08T06:43:12;37.43;;;31.23;;
14171;SDS011;7165;52.388;4.928;2024-03-08T06:45:41;35.00;;;31.20;;
14171;SDS011;7165;52.388;4.928;2024-03-08T06:48:13;36.07;;;31.20;;
14171;SDS011;7165;52.388;4.928;2024-03-08T06:50:40;33.40;;;29.57;;
14171;SDS011;7165;52.388;4.928;2024-03-08T06:53:07;34.40;;;30.73;;
14171;SDS011;7165;52.388;4.928;2024-03-08T06:55:34;36.13;;;31.10;;
14171;SDS011;7165;52.388;4.928;2024-03-08T06:58:02;37.63;;;31.77;;
14171;SDS011;7165;52.388;4.928;2024-03-08T07:00:30;38.37;;;31.40;;
14171;SDS011;7165;52.388;4.928;2024-03-08T07:02:56;39.77;;;32.53;;
14171;SDS011;7165;52.388;4.928;2024-03-08T07:05:25;34.70;;;29.73;;
14171;SDS011;7165;52.388;4.928;2024-03-08T07:07:52;35.87;;;30.40;;
14171;SDS011;7165;52.388;4.928;2024-03-08T07:10:19;36.17;;;31.47;;
14171;SDS011;7165;52.388;4.928;2024-03-08T07:12:49;34.80;;;29.87;;
14171;SDS011;7165;52.388;4.928;2024-03-08T07:15:17;37.20;;;31.93;;
14171;SDS011;7165;52.388;4.928;2024-03-08T07:17:45;37.80;;;31.37;;
14171;SDS011;7165;52.388;4.928;2024-03-08T07:20:12;36.83;;;31.47;;
14171;SDS011;7165;52.388;4.928;2024-03-08T07:22:40;46.10;;;35.80;;
14171;SDS011;7165;52.388;4.928;2024-03-08T07:25:08;36.93;;;31.00;;
14171;SDS011;7165;52.388;4.928;2024-03-08T07:27:46;36.73;;;31.57;;
14171;SDS011;7165;52.388;4.928;2024-03-08T07:30:13;34.93;;;30.17;;
14171;SDS011;7165;52.388;4.928;2024-03-08T07:33:05;33.60;;;30.03;;
14171;SDS011;7165;52.388;4.928;2024-03-08T07:35:32;41.07;;;34.47;;
14171;SDS011;7165;52.388;4.928;2024-03-08T07:38:02;34.57;;;29.70;;
14171;SDS011;7165;52.388;4.928;2024-03-08T07:40:30;35.43;;;31.40;;
14171;SDS011;7165;52.388;4.928;2024-03-08T07:42:57;37.93;;;31.83;;
14171;SDS011;7165;52.388;4.928;2024-03-08T07:45:25;36.67;;;31.10;;
14171;SDS011;7165;52.388;4.928;2024-03-08T07:47:52;33.50;;;29.90;;
14171;SDS011;7165;52.388;4.928;2024-03-08T07:50:20;41.10;;;32.70;;
14171;SDS011;7165;52.388;4.928;2024-03-08T07:52:48;36.60;;;32.70;;
14171;SDS011;7165;52.388;4.928;2024-03-08T07:55:15;47.53;;;40.10;;
14171;SDS011;7165;52.388;4.928;2024-03-08T07:57:41;35.57;;;31.53;;
14171;SDS011;7165;52.388;4.928;2024-03-08T08:00:09;36.70;;;31.67;;
14171;SDS011;7165;52.388;4.928;2024-03-08T08:02:42;36.63;;;32.40;;
14171;SDS011;7165;52.388;4.928;2024-03-08T08:05:10;37.60;;;32.33;;
14171;SDS011;7165;52.388;4.928;2024-03-08T08:07:38;34.70;;;31.03;;
14171;SDS011;7165;52.388;4.928;2024-03-08T08:10:08;37.10;;;31.53;;
14171;SDS011;7165;52.388;4.928;2024-03-08T08:12:41;31.70;;;28.33;;
14171;SDS011;7165;52.388;4.928;2024-03-08T08:15:08;40.93;;;35.27;;
14171;SDS011;7165;52.388;4.928;2024-03-08T08:17:35;43.17;;;34.77;;
14171;SDS011;7165;52.388;4.928;2024-03-08T08:20:03;31.87;;;28.30;;
14171;SDS011;7165;52.388;4.928;2024-03-08T08:22:31;32.87;;;29.27;;
14171;SDS011;7165;52.388;4.928;2024-03-08T08:24:59;33.57;;;29.87;;
14171;SDS011;7165;52.388;4.928;2024-03-08T08:27:26;36.40;;;31.60;;
14171;SDS011;7165;52.388;4.928;2024-03-08T08:29:53;32.50;;;29.00;;
14171;SDS011;7165;52.388;4.928;2024-03-08T08:32:20;36.77;;;31.30;;
14171;SDS011;7165;52.388;4.928;2024-03-08T08:34:47;36.30;;;31.80;;
14171;SDS011;7165;52.388;4.928;2024-03-08T08:37:14;46.33;;;37.70;;
14171;SDS011;7165;52.388;4.928;2024-03-08T08:39:42;42.03;;;36.20;;
14171;SDS011;7165;52.388;4.928;2024-03-08T08:42:10;42.30;;;36.60;;
14171;SDS011;7165;52.388;4.928;2024-03-08T08:44:37;30.60;;;27.40;;
14171;SDS011;7165;52.388;4.928;2024-03-08T08:47:04;30.23;;;27.13;;
14171;SDS011;7165;52.388;4.928;2024-03-08T08:49:32;32.70;;;29.23;;
14171;SDS011;7165;52.388;4.928;2024-03-08T08:52:00;33.17;;;29.57;;
14171;SDS011;7165;52.388;4.928;2024-03-08T08:54:28;33.80;;;30.40;;
14171;SDS011;7165;52.388;4.928;2024-03-08T08:56:56;32.40;;;28.37;;
14171;SDS011;7165;52.388;4.928;2024-03-08T08:59:24;30.53;;;27.23;;
14171;SDS011;7165;52.388;4.928;2024-03-08T09:01:51;34.47;;;30.87;;
14171;SDS011;7165;52.388;4.928;2024-03-08T09:04:19;38.70;;;34.33;;
14171;SDS011;7165;52.388;4.928;2024-03-08T09:06:48;36.60;;;31.63;;
14171;SDS011;7165;52.388;4.928;2024-03-08T09:09:15;33.13;;;29.70;;
14171;SDS011;7165;52.388;4.928;2024-03-08T09:11:42;32.77;;;29.30;;
14171;SDS011;7165;52.388;4.928;2024-03-08T09:14:09;33.00;;;29.60;;
14171;SDS011;7165;52.388;4.928;2024-03-08T09:16:38;33.13;;;29.73;;
14171;SDS011;7165;52.388;4.928;2024-03-08T09:19:06;32.87;;;29.10;;
14171;SDS011;7165;52.388;4.928;2024-03-08T09:21:35;38.40;;;32.97;;
14171;SDS011;7165;52.388;4.928;2024-03-08T09:24:03;37.00;;;31.90;;
14171;SDS011;7165;52.388;4.928;2024-03-08T09:26:31;34.43;;;30.80;;
14171;SDS011;7165;52.388;4.928;2024-03-08T09:28:58;34.57;;;30.97;;
14171;SDS011;7165;52.388;4.928;2024-03-08T09:31:25;33.77;;;30.27;;
14171;SDS011;7165;52.388;4.928;2024-03-08T09:33:53;33.00;;;29.60;;
14171;SDS011;7165;52.388;4.928;2024-03-08T09:36:20;33.07;;;29.63;;
14171;SDS011;7165;52.388;4.928;2024-03-08T09:38:47;35.13;;;29.93;;
14171;SDS011;7165;52.388;4.928;2024-03-08T09:41:15;37.40;;;33.43;;
14171;SDS011;7165;52.388;4.928;2024-03-08T09:43:42;32.53;;;29.03;;
14171;SDS011;7165;52.388;4.928;2024-03-08T09:46:12;32.57;;;29.17;;
14171;SDS011;7165;52.388;4.928;2024-03-08T09:48:40;32.70;;;29.20;;
14171;SDS011;7165;52.388;4.928;2024-03-08T09:51:08;35.13;;;30.93;;
14171;SDS011;7165;52.388;4.928;2024-03-08T09:53:39;39.57;;;34.90;;
14171;SDS011;7165;52.388;4.928;2024-03-08T09:56:07;34.97;;;31.27;;
14171;SDS011;7165;52.388;4.928;2024-03-08T09:58:34;39.37;;;35.07;;
14171;SDS011;7165;52.388;4.928;2024-03-08T10:01:19;36.97;;;33.07;;
14171;SDS011;7165;52.388;4.928;2024-03-08T10:03:46;32.20;;;28.80;;
14171;SDS011;7165;52.388;4.928;2024-03-08T10:06:15;31.97;;;28.77;;
14171;SDS011;7165;52.388;4.928;2024-03-08T10:08:43;34.17;;;30.63;;
14171;SDS011;7165;52.388;4.928;2024-03-08T10:11:10;29.70;;;26.67;;
14171;SDS011;7165;52.388;4.928;2024-03-08T10:13:37;30.73;;;27.63;;
14171;SDS011;7165;52.388;4.928;2024-03-08T10:16:06;30.83;;;27.80;;
14171;SDS011;7165;52.388;4.928;2024-03-08T10:18:33;34.20;;;29.92;;
14171;SDS011;7165;52.388;4.928;2024-03-08T10:21:04;30.42;;;27.30;;
14171;SDS011;7165;52.388;4.928;2024-03-08T10:23:33;31.67;;;28.40;;
14171;SDS011;7165;52.388;4.928;2024-03-08T10:26:10;32.30;;;28.93;;
14171;SDS011;7165;52.388;4.928;2024-03-08T10:28:39;31.67;;;28.35;;
14171;SDS011;7165;52.388;4.928;2024-03-08T10:31:07;31.38;;;28.20;;
14171;SDS011;7165;52.388;4.928;2024-03-08T10:33:35;30.35;;;27.45;;
14171;SDS011;7165;52.388;4.928;2024-03-08T16:27:52;22.10;;;19.80;;
14171;SDS011;7165;52.388;4.928;2024-03-08T16:30:20;20.73;;;18.73;;
14171;SDS011;7165;52.388;4.928;2024-03-08T16:45:08;23.65;;;21.27;;
14171;SDS011;7165;52.388;4.928;2024-03-08T16:47:37;23.02;;;20.63;;
14171;SDS011;7165;52.388;4.928;2024-03-08T16:50:05;20.75;;;18.58;;
14171;SDS011;7165;52.388;4.928;2024-03-08T16:52:33;22.50;;;20.10;;
14171;SDS011;7165;52.388;4.928;2024-03-08T16:55:00;20.27;;;18.25;;
14171;SDS011;7165;52.388;4.928;2024-03-08T16:57:27;21.85;;;19.42;;
14171;SDS011;7165;52.388;4.928;2024-03-08T16:59:57;20.80;;;18.85;;
14171;SDS011;7165;52.388;4.928;2024-03-08T17:02:23;22.13;;;19.92;;
14171;SDS011;7165;52.388;4.928;2024-03-08T17:04:52;20.58;;;18.40;;
14171;SDS011;7165;52.388;4.928;2024-03-08T17:07:19;19.98;;;18.10;;
14171;SDS011;7165;52.388;4.928;2024-03-08T17:09:47;19.77;;;17.80;;
14171;SDS011;7165;52.388;4.928;2024-03-08T17:12:14;18.77;;;16.80;;
14171;SDS011;7165;52.388;4.928;2024-03-08T17:14:44;21.42;;;19.35;;
14171;SDS011;7165;52.388;4.928;2024-03-08T17:17:11;21.13;;;19.02;;
14171;SDS011;7165;52.388;4.928;2024-03-08T17:19:39;21.83;;;19.55;;
14171;SDS011;7165;52.388;4.928;2024-03-08T17:22:08;21.27;;;19.20;;
14171;SDS011;7165;52.388;4.928;2024-03-08T17:24:36;20.85;;;18.75;;
14171;SDS011;7165;52.388;4.928;2024-03-08T17:27:03;22.70;;;20.33;;
14171;SDS011;7165;52.388;4.928;2024-03-08T17:29:32;23.60;;;21.20;;
14171;SDS011;7165;52.388;4.928;2024-03-08T17:31:59;22.40;;;20.17;;
14171;SDS011;7165;52.388;4.928;2024-03-08T17:34:26;23.42;;;21.10;;
14171;SDS011;7165;52.388;4.928;2024-03-08T17:36:53;22.55;;;20.27;;
14171;SDS011;7165;52.388;4.928;2024-03-08T17:39:24;25.48;;;22.88;;
14171;SDS011;7165;52.388;4.928;2024-03-08T17:41:55;27.58;;;24.38;;
14171;SDS011;7165;52.388;4.928;2024-03-08T17:44:22;27.30;;;24.42;;
14171;SDS011;7165;52.388;4.928;2024-03-08T17:46:49;29.58;;;26.60;;
14171;SDS011;7165;52.388;4.928;2024-03-08T17:49:16;28.50;;;25.23;;
14171;SDS011;7165;52.388;4.928;2024-03-08T17:51:43;29.60;;;26.42;;
14171;SDS011;7165;52.388;4.928;2024-03-08T17:54:10;30.42;;;27.35;;
14171;SDS011;7165;52.388;4.928;2024-03-08T17:56:40;29.42;;;26.38;;
14171;SDS011;7165;52.388;4.928;2024-03-08T17:59:07;29.35;;;26.42;;
14171;SDS011;7165;52.388;4.928;2024-03-08T18:01:37;29.73;;;26.75;;
14171;SDS011;7165;52.388;4.928;2024-03-08T18:04:05;28.13;;;25.27;;
14171;SDS011;7165;52.388;4.928;2024-03-08T18:06:32;29.77;;;26.65;;
14171;SDS011;7165;52.388;4.928;2024-03-08T18:09:03;30.13;;;27.05;;
14171;SDS011;7165;52.388;4.928;2024-03-08T18:11:35;31.80;;;28.23;;
14171;SDS011;7165;52.388;4.928;2024-03-08T18:14:03;32.22;;;28.75;;
14171;SDS011;7165;52.388;4.928;2024-03-08T18:16:34;30.70;;;27.23;;
14171;SDS011;7165;52.388;4.928;2024-03-08T18:19:03;32.58;;;29.27;;
14171;SDS011;7165;52.388;4.928;2024-03-08T18:21:32;32.20;;;28.70;;
14171;SDS011;7165;52.388;4.928;2024-03-08T18:24:01;34.40;;;30.57;;
14171;SDS011;7165;52.388;4.928;2024-03-08T18:26:28;32.70;;;29.30;;
14171;SDS011;7165;52.388;4.928;2024-03-08T18:28:58;32.90;;;29.07;;
14171;SDS011;7165;52.388;4.928;2024-03-08T18:31:28;32.80;;;29.40;;
14171;SDS011;7165;52.388;4.928;2024-03-08T18:33:55;33.07;;;29.43;;
14171;SDS011;7165;52.388;4.928;2024-03-08T18:36:24;32.47;;;29.00;;
14171;SDS011;7165;52.388;4.928;2024-03-08T18:38:51;31.37;;;28.07;;
14171;SDS011;7165;52.388;4.928;2024-03-08T18:41:18;33.40;;;29.27;;
14171;SDS011;7165;52.388;4.928;2024-03-08T18:43:45;31.57;;;28.37;;
14171;SDS011;7165;52.388;4.928;2024-03-08T18:46:12;33.73;;;30.23;;
14171;SDS011;7165;52.388;4.928;2024-03-08T18:48:40;31.87;;;28.47;;
14171;SDS011;7165;52.388;4.928;2024-03-08T18:51:07;33.73;;;30.10;;
14171;SDS011;7165;52.388;4.928;2024-03-08T18:53:34;33.60;;;29.97;;
14171;SDS011;7165;52.388;4.928;2024-03-08T18:56:06;31.60;;;28.33;;
14171;SDS011;7165;52.388;4.928;2024-03-08T18:58:33;31.93;;;28.47;;
14171;SDS011;7165;52.388;4.928;2024-03-08T19:01:00;32.30;;;28.90;;
14171;SDS011;7165;52.388;4.928;2024-03-08T19:03:30;31.17;;;28.03;;
14171;SDS011;7165;52.388;4.928;2024-03-08T19:05:59;30.70;;;27.50;;
14171;SDS011;7165;52.388;4.928;2024-03-08T19:08:27;32.10;;;28.80;;
14171;SDS011;7165;52.388;4.928;2024-03-08T19:10:55;31.30;;;27.77;;
14171;SDS011;7165;52.388;4.928;2024-03-08T19:13:22;31.47;;;28.07;;
14171;SDS011;7165;52.388;4.928;2024-03-08T19:15:49;33.67;;;28.87;;
14171;SDS011;7165;52.388;4.928;2024-03-08T19:18:19;30.40;;;27.20;;
14171;SDS011;7165;52.388;4.928;2024-03-08T19:30:38;31.87;;;28.40;;
14171;SDS011;7165;52.388;4.928;2024-03-08T19:33:06;30.97;;;27.63;;
14171;SDS011;7165;52.388;4.928;2024-03-08T19:35:36;30.30;;;27.20;;
14171;SDS011;7165;52.388;4.928;2024-03-08T19:38:03;31.90;;;27.67;;
14171;SDS011;7165;52.388;4.928;2024-03-08T19:40:33;30.50;;;27.30;;
14171;SDS011;7165;52.388;4.928;2024-03-08T19:43:03;29.73;;;26.53;;
14171;SDS011;7165;52.388;4.928;2024-03-08T19:45:32;29.07;;;25.97;;
14171;SDS011;7165;52.388;4.928;2024-03-08T19:48:00;30.80;;;26.87;;
14171;SDS011;7165;52.388;4.928;2024-03-08T19:50:30;30.20;;;27.00;;
14171;SDS011;7165;52.388;4.928;2024-03-08T19:52:59;32.83;;;29.23;;
14171;SDS011;7165;52.388;4.928;2024-03-08T19:55:33;31.40;;;27.23;;
14171;SDS011;7165;52.388;4.928;2024-03-08T19:58:01;29.43;;;26.43;;
14171;SDS011;7165;52.388;4.928;2024-03-08T20:00:29;32.60;;;26.83;;
14171;SDS011;7165;52.388;4.928;2024-03-08T20:02:57;31.33;;;27.97;;
14171;SDS011;7165;52.388;4.928;2024-03-08T20:05:25;32.60;;;27.33;;
14171;SDS011;7165;52.388;4.928;2024-03-08T20:07:55;37.27;;;30.37;;
14171;SDS011;7165;52.388;4.928;2024-03-08T20:10:29;29.93;;;26.70;;
14171;SDS011;7165;52.388;4.928;2024-03-08T20:12:58;30.23;;;26.97;;
14171;SDS011;7165;52.388;4.928;2024-03-08T20:15:24;33.23;;;27.43;;
14171;SDS011;7165;52.388;4.928;2024-03-08T20:17:52;31.07;;;25.90;;
14171;SDS011;7165;52.388;4.928;2024-03-08T20:20:19;31.50;;;28.10;;
14171;SDS011;7165;52.388;4.928;2024-03-08T20:22:47;31.50;;;26.53;;
14171;SDS011;7165;52.388;4.928;2024-03-08T20:25:16;36.83;;;30.50;;
14171;SDS011;7165;52.388;4.928;2024-03-08T20:27:44;32.23;;;28.47;;
14171;SDS011;7165;52.388;4.928;2024-03-08T20:30:16;32.47;;;27.93;;
14171;SDS011;7165;52.388;4.928;2024-03-08T20:32:46;32.10;;;27.63;;
14171;SDS011;7165;52.388;4.928;2024-03-08T20:35:14;35.40;;;30.27;;
14171;SDS011;7165;52.388;4.928;2024-03-08T20:37:45;34.70;;;31.00;;
14171;SDS011;7165;52.388;4.928;2024-03-08T20:40:13;32.03;;;28.10;;
14171;SDS011;7165;52.388;4.928;2024-03-08T20:42:40;31.30;;;27.33;;
14171;SDS011;7165;52.388;4.928;2024-03-08T20:45:09;30.37;;;27.17;;
14171;SDS011;7165;52.388;4.928;2024-03-08T20:47:40;36.73;;;29.83;;
14171;SDS011;7165;52.388;4.928;2024-03-08T20:50:08;36.67;;;30.57;;
14171;SDS011;7165;52.388;4.928;2024-03-08T20:52:38;36.47;;;29.20;;
14171;SDS011;7165;52.388;4.928;2024-03-08T20:55:06;32.43;;;28.40;;
14171;SDS011;7165;52.388;4.928;2024-03-08T20:57:37;31.50;;;28.10;;